sensor_id;sensor_type;location;lat;lon;timestamp;P1;durP1;ratioP1;P2;durP2;ratioP2
16440;SDS011;8330;-33.858;151.184;2023-04-03T00:01:28;5.10;;;2.60;;
16440;SDS011;8330;-33.858;151.184;2023-04-03T00:04:00;5.35;;;2.60;;
16440;SDS011;8330;-33.858;151.184;2023-04-03T00:06:31;6.07;;;2.42;;
16440;SDS011;8330;-33.858;151.184;2023-04-03T00:09:02;7.18;;;2.50;;
16440;SDS011;8330;-33.858;151.184;2023-04-03T00:11:35;5.55;;;2.20;;
16440;SDS011;8330;-33.858;151.184;2023-04-03T00:14:06;8.65;;;2.53;;
16440;SDS011;8330;-33.858;151.184;2023-04-03T00:16:37;7.50;;;2.90;;
16440;SDS011;8330;-33.858;151.184;2023-04-03T00:19:08;9.07;;;3.00;;
16440;SDS011;8330;-33.858;151.184;2023-04-03T00:21:40;6.38;;;2.78;;
16440;SDS011;8330;-33.858;151.184;2023-04-03T00:24:11;5.65;;;2.55;;
16440;SDS011;8330;-33.858;151.184;2023-04-03T00:26:44;4.43;;;2.05;;
16440;SDS011;8330;-33.858;151.184;2023-04-03T00:29:15;4.40;;;2.22;;
16440;SDS011;8330;-33.858;151.184;2023-04-03T00:31:46;7.93;;;2.42;;
16440;SDS011;8330;-33.858;151.184;2023-04-03T00:34:17;4.97;;;2.05;;
16440;SDS011;8330;-33.858;151.184;2023-04-03T00:36:48;7.80;;;2.00;;
16440;SDS011;8330;-33.858;151.184;2023-04-03T00:39:19;6.32;;;1.95;;
16440;SDS011;8330;-33.858;151.184;2023-04-03T00:41:52;6.22;;;2.17;;
16440;SDS011;8330;-33.858;151.184;2023-04-03T00:47:26;7.55;;;2.30;;
16440;SDS011;8330;-33.858;151.184;2023-04-03T00:49:58;8.82;;;2.80;;
16440;SDS011;8330;-33.858;151.184;2023-04-03T00:52:30;10.20;;;2.83;;
16440;SDS011;8330;-33.858;151.184;2023-04-03T00:55:03;5.20;;;2.35;;
16440;SDS011;8330;-33.858;151.184;2023-04-03T00:57:38;6.03;;;2.10;;
16440;SDS011;8330;-33.858;151.184;2023-04-03T01:00:10;9.32;;;2.60;;
16440;SDS011;8330;-33.858;151.184;2023-04-03T01:02:45;6.45;;;2.30;;
16440;SDS011;8330;-33.858;151.184;2023-04-03T01:05:16;6.85;;;2.55;;
16440;SDS011;8330;-33.858;151.184;2023-04-03T01:07:49;6.50;;;2.28;;
16440;SDS011;8330;-33.858;151.184;2023-04-03T01:10:21;6.95;;;1.90;;
16440;SDS011;8330;-33.858;151.184;2023-04-03T01:12:55;5.90;;;2.30;;
16440;SDS011;8330;-33.858;151.184;2023-04-03T01:15:26;5.43;;;2.78;;
16440;SDS011;8330;-33.858;151.184;2023-04-03T01:18:01;7.22;;;2.55;;
16440;SDS011;8330;-33.858;151.184;2023-04-03T01:20:36;5.50;;;2.40;;
16440;SDS011;8330;-33.858;151.184;2023-04-03T01:23:44;5.28;;;2.20;;
16440;SDS011;8330;-33.858;151.184;2023-04-03T01:26:34;5.47;;;2.40;;
16440;SDS011;8330;-33.858;151.184;2023-04-03T01:29:07;6.45;;;2.72;;
16440;SDS011;8330;-33.858;151.184;2023-04-03T01:31:46;6.10;;;2.70;;
16440;SDS011;8330;-33.858;151.184;2023-04-03T01:34:19;8.65;;;2.70;;
16440;SDS011;8330;-33.858;151.184;2023-04-03T01:36:51;4.85;;;2.08;;
16440;SDS011;8330;-33.858;151.184;2023-04-03T01:39:22;5.95;;;1.60;;
16440;SDS011;8330;-33.858;151.184;2023-04-03T01:41:53;6.53;;;1.77;;
16440;SDS011;8330;-33.858;151.184;2023-04-03T01:44:25;6.53;;;1.55;;
16440;SDS011;8330;-33.858;151.184;2023-04-03T01:46:58;4.85;;;1.48;;
16440;SDS011;8330;-33.858;151.184;2023-04-03T01:49:29;4.88;;;1.10;;
16440;SDS011;8330;-33.858;151.184;2023-04-03T01:52:00;5.47;;;1.27;;
16440;SDS011;8330;-33.858;151.184;2023-04-03T01:54:31;4.00;;;0.93;;
16440;SDS011;8330;-33.858;151.184;2023-04-03T01:57:02;5.20;;;1.30;;
16440;SDS011;8330;-33.858;151.184;2023-04-03T01:59:34;6.13;;;1.23;;
16440;SDS011;8330;-33.858;151.184;2023-04-03T02:02:07;7.40;;;1.50;;
16440;SDS011;8330;-33.858;151.184;2023-04-03T02:04:38;2.90;;;1.02;;
16440;SDS011;8330;-33.858;151.184;2023-04-03T02:07:09;4.65;;;1.30;;
16440;SDS011;8330;-33.858;151.184;2023-04-03T02:09:40;3.42;;;0.95;;
16440;SDS011;8330;-33.858;151.184;2023-04-03T02:12:11;4.50;;;1.33;;
16440;SDS011;8330;-33.858;151.184;2023-04-03T02:14:42;4.45;;;0.93;;
16440;SDS011;8330;-33.858;151.184;2023-04-03T02:17:15;4.35;;;0.80;;
16440;SDS011;8330;-33.858;151.184;2023-04-03T02:19:47;3.25;;;0.98;;
16440;SDS011;8330;-33.858;151.184;2023-04-03T02:22:18;5.38;;;1.20;;
16440;SDS011;8330;-33.858;151.184;2023-04-03T02:24:49;2.70;;;0.88;;
16440;SDS011;8330;-33.858;151.184;2023-04-03T02:27:20;3.97;;;1.10;;
16440;SDS011;8330;-33.858;151.184;2023-04-03T02:29:51;4.88;;;0.93;;
16440;SDS011;8330;-33.858;151.184;2023-04-03T02:32:24;3.30;;;1.00;;
16440;SDS011;8330;-33.858;151.184;2023-04-03T02:34:55;3.63;;;0.88;;
16440;SDS011;8330;-33.858;151.184;2023-04-03T02:37:27;4.55;;;0.88;;
16440;SDS011;8330;-33.858;151.184;2023-04-03T02:39:58;6.13;;;1.13;;
16440;SDS011;8330;-33.858;151.184;2023-04-03T02:42:29;3.35;;;0.93;;
16440;SDS011;8330;-33.858;151.184;2023-04-03T02:45:01;6.07;;;0.98;;
16440;SDS011;8330;-33.858;151.184;2023-04-03T02:47:34;3.83;;;0.90;;
16440;SDS011;8330;-33.858;151.184;2023-04-03T02:50:05;3.65;;;0.80;;
16440;SDS011;8330;-33.858;151.184;2023-04-03T02:52:37;3.97;;;1.00;;
16440;SDS011;8330;-33.858;151.184;2023-04-03T02:55:08;3.97;;;0.80;;
16440;SDS011;8330;-33.858;151.184;2023-04-03T02:57:42;4.57;;;0.90;;
16440;SDS011;8330;-33.858;151.184;2023-04-03T03:00:13;3.67;;;0.90;;
16440;SDS011;8330;-33.858;151.184;2023-04-03T03:02:48;5.03;;;1.00;;
16440;SDS011;8330;-33.858;151.184;2023-04-03T03:05:19;6.60;;;1.23;;
16440;SDS011;8330;-33.858;151.184;2023-04-03T03:07:50;3.88;;;0.82;;
16440;SDS011;8330;-33.858;151.184;2023-04-03T03:10:21;6.20;;;1.10;;
16440;SDS011;8330;-33.858;151.184;2023-04-03T03:12:54;5.00;;;0.93;;
16440;SDS011;8330;-33.858;151.184;2023-04-03T03:15:25;4.28;;;0.98;;
16440;SDS011;8330;-33.858;151.184;2023-04-03T03:17:59;2.83;;;0.98;;
16440;SDS011;8330;-33.858;151.184;2023-04-03T03:20:30;4.57;;;0.88;;
16440;SDS011;8330;-33.858;151.184;2023-04-03T03:23:01;2.20;;;0.55;;
16440;SDS011;8330;-33.858;151.184;2023-04-03T03:25:32;2.15;;;0.80;;
16440;SDS011;8330;-33.858;151.184;2023-04-03T03:28:06;3.50;;;0.90;;
16440;SDS011;8330;-33.858;151.184;2023-04-03T03:30:37;5.93;;;0.90;;
16440;SDS011;8330;-33.858;151.184;2023-04-03T03:33:10;5.70;;;1.08;;
16440;SDS011;8330;-33.858;151.184;2023-04-03T03:35:43;3.78;;;1.02;;
16440;SDS011;8330;-33.858;151.184;2023-04-03T03:38:14;4.18;;;0.80;;
16440;SDS011;8330;-33.858;151.184;2023-04-03T03:40:47;7.00;;;1.20;;
16440;SDS011;8330;-33.858;151.184;2023-04-03T03:43:19;3.78;;;0.80;;
16440;SDS011;8330;-33.858;151.184;2023-04-03T03:45:50;7.28;;;1.30;;
16440;SDS011;8330;-33.858;151.184;2023-04-03T03:48:24;3.20;;;0.98;;
16440;SDS011;8330;-33.858;151.184;2023-04-03T03:50:59;4.60;;;0.90;;
16440;SDS011;8330;-33.858;151.184;2023-04-03T03:53:30;4.72;;;0.95;;
16440;SDS011;8330;-33.858;151.184;2023-04-03T03:56:01;3.75;;;1.00;;
16440;SDS011;8330;-33.858;151.184;2023-04-03T03:58:32;6.22;;;1.27;;
16440;SDS011;8330;-33.858;151.184;2023-04-03T04:01:04;5.13;;;1.00;;
16440;SDS011;8330;-33.858;151.184;2023-04-03T04:03:37;5.03;;;1.00;;
16440;SDS011;8330;-33.858;151.184;2023-04-03T04:06:08;2.92;;;0.82;;
16440;SDS011;8330;-33.858;151.184;2023-04-03T04:08:39;6.57;;;1.10;;
16440;SDS011;8330;-33.858;151.184;2023-04-03T04:11:10;6.78;;;1.10;;
16440;SDS011;8330;-33.858;151.184;2023-04-03T04:13:41;5.95;;;1.30;;
16440;SDS011;8330;-33.858;151.184;2023-04-03T04:16:12;9.10;;;1.10;;
16440;SDS011;8330;-33.858;151.184;2023-04-03T04:18:45;3.55;;;0.70;;
16440;SDS011;8330;-33.858;151.184;2023-04-03T04:21:17;6.50;;;1.15;;
16440;SDS011;8330;-33.858;151.184;2023-04-03T04:23:48;4.20;;;1.30;;
16440;SDS011;8330;-33.858;151.184;2023-04-03T04:26:19;6.00;;;1.08;;
16440;SDS011;8330;-33.858;151.184;2023-04-03T04:28:50;8.45;;;1.20;;
16440;SDS011;8330;-33.858;151.184;2023-04-03T04:31:21;5.53;;;1.10;;
16440;SDS011;8330;-33.858;151.184;2023-04-03T04:33:55;6.20;;;1.13;;
16440;SDS011;8330;-33.858;151.184;2023-04-03T04:36:26;4.28;;;0.90;;
16440;SDS011;8330;-33.858;151.184;2023-04-03T04:38:57;4.43;;;1.08;;
16440;SDS011;8330;-33.858;151.184;2023-04-03T04:41:28;6.57;;;1.20;;
16440;SDS011;8330;-33.858;151.184;2023-04-03T04:43:59;5.72;;;0.88;;
16440;SDS011;8330;-33.858;151.184;2023-04-03T04:46:30;4.88;;;1.00;;
16440;SDS011;8330;-33.858;151.184;2023-04-03T04:49:04;5.18;;;1.35;;
16440;SDS011;8330;-33.858;151.184;2023-04-03T04:51:35;6.25;;;1.30;;
16440;SDS011;8330;-33.858;151.184;2023-04-03T04:54:06;4.90;;;1.00;;
16440;SDS011;8330;-33.858;151.184;2023-04-03T04:56:37;4.30;;;0.90;;
16440;SDS011;8330;-33.858;151.184;2023-04-03T04:59:08;3.03;;;1.00;;
16440;SDS011;8330;-33.858;151.184;2023-04-03T05:01:41;3.22;;;0.82;;
16440;SDS011;8330;-33.858;151.184;2023-04-03T05:04:15;7.60;;;0.98;;
16440;SDS011;8330;-33.858;151.184;2023-04-03T05:06:46;3.50;;;0.95;;
16440;SDS011;8330;-33.858;151.184;2023-04-03T05:09:17;2.63;;;0.70;;
16440;SDS011;8330;-33.858;151.184;2023-04-03T05:11:48;3.63;;;0.82;;
16440;SDS011;8330;-33.858;151.184;2023-04-03T05:14:19;4.07;;;0.90;;
16440;SDS011;8330;-33.858;151.184;2023-04-03T05:16:51;3.83;;;0.82;;
16440;SDS011;8330;-33.858;151.184;2023-04-03T05:19:23;2.50;;;0.82;;
16440;SDS011;8330;-33.858;151.184;2023-04-03T05:21:55;3.13;;;0.80;;
16440;SDS011;8330;-33.858;151.184;2023-04-03T05:24:26;5.00;;;0.88;;
16440;SDS011;8330;-33.858;151.184;2023-04-03T05:26:57;6.38;;;1.20;;
16440;SDS011;8330;-33.858;151.184;2023-04-03T05:29:28;2.70;;;0.90;;
16440;SDS011;8330;-33.858;151.184;2023-04-03T05:31:59;5.25;;;1.10;;
16440;SDS011;8330;-33.858;151.184;2023-04-03T05:34:32;6.05;;;1.00;;
16440;SDS011;8330;-33.858;151.184;2023-04-03T05:37:03;5.47;;;0.95;;
16440;SDS011;8330;-33.858;151.184;2023-04-03T05:39:38;4.88;;;1.00;;
16440;SDS011;8330;-33.858;151.184;2023-04-03T05:42:09;6.82;;;1.30;;
16440;SDS011;8330;-33.858;151.184;2023-04-03T05:44:43;4.93;;;0.93;;
16440;SDS011;8330;-33.858;151.184;2023-04-03T05:47:16;4.20;;;0.80;;
16440;SDS011;8330;-33.858;151.184;2023-04-03T05:49:50;4.60;;;1.00;;
16440;SDS011;8330;-33.858;151.184;2023-04-03T05:52:21;5.35;;;0.95;;
16440;SDS011;8330;-33.858;151.184;2023-04-03T05:54:55;5.88;;;1.30;;
16440;SDS011;8330;-33.858;151.184;2023-04-03T05:57:27;3.22;;;0.80;;
16440;SDS011;8330;-33.858;151.184;2023-04-03T05:59:58;4.68;;;0.90;;
16440;SDS011;8330;-33.858;151.184;2023-04-03T06:02:30;5.30;;;1.00;;
16440;SDS011;8330;-33.858;151.184;2023-04-03T06:05:03;6.18;;;0.95;;
16440;SDS011;8330;-33.858;151.184;2023-04-03T06:07:35;6.03;;;0.95;;
16440;SDS011;8330;-33.858;151.184;2023-04-03T06:10:07;5.80;;;1.20;;
16440;SDS011;8330;-33.858;151.184;2023-04-03T06:12:41;3.92;;;0.88;;
16440;SDS011;8330;-33.858;151.184;2023-04-03T06:15:13;4.00;;;0.88;;
16440;SDS011;8330;-33.858;151.184;2023-04-03T06:17:44;6.15;;;1.00;;
16440;SDS011;8330;-33.858;151.184;2023-04-03T06:20:17;4.18;;;0.90;;
16440;SDS011;8330;-33.858;151.184;2023-04-03T06:22:48;3.47;;;0.90;;
16440;SDS011;8330;-33.858;151.184;2023-04-03T06:25:19;5.78;;;1.42;;
16440;SDS011;8330;-33.858;151.184;2023-04-03T06:27:50;2.80;;;0.90;;
16440;SDS011;8330;-33.858;151.184;2023-04-03T06:30:21;6.57;;;1.35;;
16440;SDS011;8330;-33.858;151.184;2023-04-03T06:32:53;6.18;;;0.90;;
16440;SDS011;8330;-33.858;151.184;2023-04-03T06:35:27;7.47;;;1.50;;
16440;SDS011;8330;-33.858;151.184;2023-04-03T06:38:01;8.68;;;1.40;;
16440;SDS011;8330;-33.858;151.184;2023-04-03T06:40:35;6.15;;;1.15;;
16440;SDS011;8330;-33.858;151.184;2023-04-03T06:43:06;6.47;;;1.00;;
16440;SDS011;8330;-33.858;151.184;2023-04-03T06:45:37;4.78;;;1.75;;
16440;SDS011;8330;-33.858;151.184;2023-04-03T06:48:08;5.68;;;1.05;;
16440;SDS011;8330;-33.858;151.184;2023-04-03T06:50:42;3.58;;;0.80;;
16440;SDS011;8330;-33.858;151.184;2023-04-03T06:53:13;3.80;;;1.10;;
16440;SDS011;8330;-33.858;151.184;2023-04-03T06:55:44;4.57;;;1.00;;
16440;SDS011;8330;-33.858;151.184;2023-04-03T06:58:16;4.75;;;1.20;;
16440;SDS011;8330;-33.858;151.184;2023-04-03T07:00:48;4.82;;;0.95;;
16440;SDS011;8330;-33.858;151.184;2023-04-03T07:03:19;7.57;;;1.30;;
16440;SDS011;8330;-33.858;151.184;2023-04-03T07:05:52;6.13;;;1.40;;
16440;SDS011;8330;-33.858;151.184;2023-04-03T07:08:23;5.15;;;1.15;;
16440;SDS011;8330;-33.858;151.184;2023-04-03T07:10:55;5.90;;;1.23;;
16440;SDS011;8330;-33.858;151.184;2023-04-03T07:13:28;4.38;;;1.00;;
16440;SDS011;8330;-33.858;151.184;2023-04-03T07:15:59;6.60;;;1.10;;
16440;SDS011;8330;-33.858;151.184;2023-04-03T07:18:31;5.95;;;1.10;;
16440;SDS011;8330;-33.858;151.184;2023-04-03T07:21:06;4.47;;;1.15;;
16440;SDS011;8330;-33.858;151.184;2023-04-03T07:23:37;8.23;;;1.60;;
16440;SDS011;8330;-33.858;151.184;2023-04-03T07:26:09;5.65;;;1.20;;
16440;SDS011;8330;-33.858;151.184;2023-04-03T07:28:40;4.55;;;1.10;;
16440;SDS011;8330;-33.858;151.184;2023-04-03T07:31:13;4.70;;;1.17;;
16440;SDS011;8330;-33.858;151.184;2023-04-03T07:33:45;6.15;;;1.10;;
16440;SDS011;8330;-33.858;151.184;2023-04-03T07:36:19;5.60;;;1.10;;
16440;SDS011;8330;-33.858;151.184;2023-04-03T07:38:54;4.85;;;1.20;;
16440;SDS011;8330;-33.858;151.184;2023-04-03T07:41:25;6.97;;;1.38;;
16440;SDS011;8330;-33.858;151.184;2023-04-03T07:43:56;7.50;;;1.10;;
16440;SDS011;8330;-33.858;151.184;2023-04-03T07:46:28;4.90;;;1.27;;
16440;SDS011;8330;-33.858;151.184;2023-04-03T07:48:59;6.05;;;1.67;;
16440;SDS011;8330;-33.858;151.184;2023-04-03T07:51:32;5.18;;;1.48;;
16440;SDS011;8330;-33.858;151.184;2023-04-03T07:54:04;7.18;;;1.40;;
16440;SDS011;8330;-33.858;151.184;2023-04-03T07:56:35;5.90;;;1.50;;
16440;SDS011;8330;-33.858;151.184;2023-04-03T07:59:06;6.30;;;1.30;;
16440;SDS011;8330;-33.858;151.184;2023-04-03T08:01:37;8.52;;;1.50;;
16440;SDS011;8330;-33.858;151.184;2023-04-03T08:04:08;5.90;;;1.23;;
16440;SDS011;8330;-33.858;151.184;2023-04-03T08:06:41;8.57;;;1.45;;
16440;SDS011;8330;-33.858;151.184;2023-04-03T08:09:12;8.98;;;1.77;;
16440;SDS011;8330;-33.858;151.184;2023-04-03T08:11:45;6.65;;;1.35;;
16440;SDS011;8330;-33.858;151.184;2023-04-03T08:14:19;4.95;;;1.08;;
16440;SDS011;8330;-33.858;151.184;2023-04-03T08:16:50;5.38;;;1.33;;
16440;SDS011;8330;-33.858;151.184;2023-04-03T08:19:21;6.32;;;1.30;;
16440;SDS011;8330;-33.858;151.184;2023-04-03T08:21:55;9.15;;;1.55;;
16440;SDS011;8330;-33.858;151.184;2023-04-03T08:24:29;4.00;;;1.13;;
16440;SDS011;8330;-33.858;151.184;2023-04-03T08:27:00;6.65;;;1.35;;
16440;SDS011;8330;-33.858;151.184;2023-04-03T08:29:31;5.15;;;1.48;;
16440;SDS011;8330;-33.858;151.184;2023-04-03T08:32:04;6.80;;;1.50;;
16440;SDS011;8330;-33.858;151.184;2023-04-03T08:34:35;7.13;;;1.33;;
16440;SDS011;8330;-33.858;151.184;2023-04-03T08:37:08;3.72;;;1.10;;
16440;SDS011;8330;-33.858;151.184;2023-04-03T08:39:39;7.80;;;1.40;;
16440;SDS011;8330;-33.858;151.184;2023-04-03T08:42:13;5.95;;;1.20;;
16440;SDS011;8330;-33.858;151.184;2023-04-03T08:44:51;4.63;;;1.05;;
16440;SDS011;8330;-33.858;151.184;2023-04-03T08:47:33;3.80;;;1.10;;
16440;SDS011;8330;-33.858;151.184;2023-04-03T08:50:11;4.78;;;1.02;;
16440;SDS011;8330;-33.858;151.184;2023-04-03T08:52:48;6.70;;;1.33;;
16440;SDS011;8330;-33.858;151.184;2023-04-03T08:55:22;5.70;;;1.23;;
16440;SDS011;8330;-33.858;151.184;2023-04-03T08:57:58;6.72;;;1.10;;
16440;SDS011;8330;-33.858;151.184;2023-04-03T09:00:32;6.07;;;1.13;;
16440;SDS011;8330;-33.858;151.184;2023-04-03T09:03:12;4.63;;;1.13;;
16440;SDS011;8330;-33.858;151.184;2023-04-03T09:05:45;5.55;;;1.10;;
16440;SDS011;8330;-33.858;151.184;2023-04-03T09:08:22;5.65;;;1.38;;
16440;SDS011;8330;-33.858;151.184;2023-04-03T09:10:58;7.68;;;1.20;;
16440;SDS011;8330;-33.858;151.184;2023-04-03T09:13:36;5.30;;;1.25;;
16440;SDS011;8330;-33.858;151.184;2023-04-03T09:16:16;4.78;;;1.10;;
16440;SDS011;8330;-33.858;151.184;2023-04-03T09:18:54;5.05;;;0.93;;
16440;SDS011;8330;-33.858;151.184;2023-04-03T09:21:36;4.35;;;1.00;;
16440;SDS011;8330;-33.858;151.184;2023-04-03T09:24:12;3.00;;;0.98;;
16440;SDS011;8330;-33.858;151.184;2023-04-03T09:26:45;4.93;;;0.93;;
16440;SDS011;8330;-33.858;151.184;2023-04-03T09:29:21;5.68;;;1.15;;
16440;SDS011;8330;-33.858;151.184;2023-04-03T09:31:55;6.18;;;1.23;;
16440;SDS011;8330;-33.858;151.184;2023-04-03T09:34:29;4.03;;;1.08;;
16440;SDS011;8330;-33.858;151.184;2023-04-03T09:37:03;7.60;;;1.40;;
16440;SDS011;8330;-33.858;151.184;2023-04-03T09:39:50;6.07;;;1.65;;
16440;SDS011;8330;-33.858;151.184;2023-04-03T09:42:22;3.55;;;1.00;;
16440;SDS011;8330;-33.858;151.184;2023-04-03T09:44:55;4.72;;;1.17;;
16440;SDS011;8330;-33.858;151.184;2023-04-03T09:47:29;4.65;;;1.35;;
16440;SDS011;8330;-33.858;151.184;2023-04-03T09:50:20;9.60;;;1.17;;
16440;SDS011;8330;-33.858;151.184;2023-04-03T09:52:53;5.40;;;1.10;;
16440;SDS011;8330;-33.858;151.184;2023-04-03T09:55:26;4.30;;;1.08;;
16440;SDS011;8330;-33.858;151.184;2023-04-03T09:57:58;5.65;;;0.88;;
16440;SDS011;8330;-33.858;151.184;2023-04-03T10:00:31;5.45;;;1.20;;
16440;SDS011;8330;-33.858;151.184;2023-04-03T10:03:05;3.88;;;1.02;;
16440;SDS011;8330;-33.858;151.184;2023-04-03T10:05:53;4.57;;;1.25;;
16440;SDS011;8330;-33.858;151.184;2023-04-03T10:08:25;5.28;;;1.60;;
16440;SDS011;8330;-33.858;151.184;2023-04-03T10:11:10;3.13;;;1.08;;
16440;SDS011;8330;-33.858;151.184;2023-04-03T10:13:53;4.30;;;1.00;;
16440;SDS011;8330;-33.858;151.184;2023-04-03T10:16:27;4.32;;;1.20;;
16440;SDS011;8330;-33.858;151.184;2023-04-03T10:19:19;4.85;;;0.88;;
16440;SDS011;8330;-33.858;151.184;2023-04-03T10:22:09;3.13;;;0.90;;
16440;SDS011;8330;-33.858;151.184;2023-04-03T10:25:12;4.22;;;1.00;;
16440;SDS011;8330;-33.858;151.184;2023-04-03T10:27:55;5.35;;;1.10;;
16440;SDS011;8330;-33.858;151.184;2023-04-03T10:30:30;4.22;;;1.15;;
16440;SDS011;8330;-33.858;151.184;2023-04-03T10:33:21;5.10;;;1.27;;
16440;SDS011;8330;-33.858;151.184;2023-04-03T10:36:14;5.57;;;1.00;;
16440;SDS011;8330;-33.858;151.184;2023-04-03T10:38:54;6.10;;;1.17;;
16440;SDS011;8330;-33.858;151.184;2023-04-03T10:41:35;4.22;;;1.17;;
16440;SDS011;8330;-33.858;151.184;2023-04-03T10:44:19;4.78;;;1.33;;
16440;SDS011;8330;-33.858;151.184;2023-04-03T10:46:58;4.63;;;1.10;;
16440;SDS011;8330;-33.858;151.184;2023-04-03T10:49:39;3.55;;;0.88;;
16440;SDS011;8330;-33.858;151.184;2023-04-03T10:52:22;3.47;;;0.98;;
16440;SDS011;8330;-33.858;151.184;2023-04-03T10:54:59;4.10;;;1.00;;
16440;SDS011;8330;-33.858;151.184;2023-04-03T10:57:36;4.43;;;0.80;;
16440;SDS011;8330;-33.858;151.184;2023-04-03T11:00:15;4.45;;;0.82;;
16440;SDS011;8330;-33.858;151.184;2023-04-03T11:02:50;4.82;;;1.00;;
16440;SDS011;8330;-33.858;151.184;2023-04-03T11:05:26;3.30;;;0.80;;
16440;SDS011;8330;-33.858;151.184;2023-04-03T11:08:02;2.40;;;0.90;;
16440;SDS011;8330;-33.858;151.184;2023-04-03T11:10:40;6.43;;;1.10;;
16440;SDS011;8330;-33.858;151.184;2023-04-03T11:13:13;6.25;;;1.10;;
16440;SDS011;8330;-33.858;151.184;2023-04-03T11:15:51;2.30;;;0.80;;
16440;SDS011;8330;-33.858;151.184;2023-04-03T11:18:25;7.70;;;1.15;;
16440;SDS011;8330;-33.858;151.184;2023-04-03T11:21:03;5.45;;;0.80;;
16440;SDS011;8330;-33.858;151.184;2023-04-03T11:23:37;6.93;;;0.90;;
16440;SDS011;8330;-33.858;151.184;2023-04-03T11:26:11;6.00;;;1.10;;
16440;SDS011;8330;-33.858;151.184;2023-04-03T11:28:44;3.53;;;0.90;;
16440;SDS011;8330;-33.858;151.184;2023-04-03T11:31:29;4.28;;;0.88;;
16440;SDS011;8330;-33.858;151.184;2023-04-03T11:34:15;4.63;;;1.08;;
16440;SDS011;8330;-33.858;151.184;2023-04-03T11:36:56;5.22;;;0.95;;
16440;SDS011;8330;-33.858;151.184;2023-04-03T11:39:30;6.50;;;1.00;;
16440;SDS011;8330;-33.858;151.184;2023-04-03T11:42:14;9.60;;;1.17;;
16440;SDS011;8330;-33.858;151.184;2023-04-03T11:47:56;3.65;;;0.85;;
16440;SDS011;8330;-33.858;151.184;2023-04-03T11:50:31;5.28;;;0.88;;
16440;SDS011;8330;-33.858;151.184;2023-04-03T12:01:54;3.90;;;1.02;;
16440;SDS011;8330;-33.858;151.184;2023-04-03T12:04:28;7.32;;;0.82;;
16440;SDS011;8330;-33.858;151.184;2023-04-03T12:07:00;2.75;;;0.60;;
16440;SDS011;8330;-33.858;151.184;2023-04-03T12:09:57;3.80;;;1.00;;
16440;SDS011;8330;-33.858;151.184;2023-04-03T12:12:39;3.00;;;0.90;;
16440;SDS011;8330;-33.858;151.184;2023-04-03T12:15:21;3.58;;;1.00;;
16440;SDS011;8330;-33.858;151.184;2023-04-03T12:21:15;4.22;;;0.82;;
16440;SDS011;8330;-33.858;151.184;2023-04-03T12:24:01;4.53;;;1.00;;
16440;SDS011;8330;-33.858;151.184;2023-04-03T12:27:00;5.47;;;0.80;;
16440;SDS011;8330;-33.858;151.184;2023-04-03T12:29:43;8.13;;;1.13;;
16440;SDS011;8330;-33.858;151.184;2023-04-03T12:32:24;7.53;;;1.05;;
16440;SDS011;8330;-33.858;151.184;2023-04-03T12:35:21;6.47;;;1.00;;
16440;SDS011;8330;-33.858;151.184;2023-04-03T12:41:08;4.45;;;1.00;;
16440;SDS011;8330;-33.858;151.184;2023-04-03T12:43:58;5.35;;;0.95;;
16440;SDS011;8330;-33.858;151.184;2023-04-03T12:46:51;6.20;;;1.02;;
16440;SDS011;8330;-33.858;151.184;2023-04-03T12:49:30;4.60;;;1.08;;
16440;SDS011;8330;-33.858;151.184;2023-04-03T12:52:06;8.30;;;1.33;;
16440;SDS011;8330;-33.858;151.184;2023-04-03T12:54:52;4.95;;;1.27;;
16440;SDS011;8330;-33.858;151.184;2023-04-03T12:57:24;5.97;;;1.08;;
16440;SDS011;8330;-33.858;151.184;2023-04-03T12:59:56;8.55;;;1.50;;
16440;SDS011;8330;-33.858;151.184;2023-04-03T13:02:29;4.07;;;0.80;;
16440;SDS011;8330;-33.858;151.184;2023-04-03T13:05:05;6.45;;;1.05;;
16440;SDS011;8330;-33.858;151.184;2023-04-03T13:07:37;8.35;;;1.25;;
16440;SDS011;8330;-33.858;151.184;2023-04-03T13:10:15;5.50;;;1.48;;
16440;SDS011;8330;-33.858;151.184;2023-04-03T13:12:49;3.65;;;1.42;;
16440;SDS011;8330;-33.858;151.184;2023-04-03T13:15:22;5.78;;;1.33;;
16440;SDS011;8330;-33.858;151.184;2023-04-03T13:17:54;3.95;;;1.20;;
16440;SDS011;8330;-33.858;151.184;2023-04-03T13:20:26;4.18;;;1.17;;
16440;SDS011;8330;-33.858;151.184;2023-04-03T13:22:59;4.03;;;1.23;;
16440;SDS011;8330;-33.858;151.184;2023-04-03T13:25:33;4.07;;;1.23;;
16440;SDS011;8330;-33.858;151.184;2023-04-03T13:28:10;6.45;;;1.33;;
16440;SDS011;8330;-33.858;151.184;2023-04-03T13:30:54;5.35;;;1.30;;
16440;SDS011;8330;-33.858;151.184;2023-04-03T13:33:33;5.47;;;1.40;;
16440;SDS011;8330;-33.858;151.184;2023-04-03T13:36:07;6.78;;;1.30;;
16440;SDS011;8330;-33.858;151.184;2023-04-03T13:38:45;6.43;;;1.02;;
16440;SDS011;8330;-33.858;151.184;2023-04-03T13:41:29;5.70;;;1.63;;
16440;SDS011;8330;-33.858;151.184;2023-04-03T13:44:26;5.25;;;1.60;;
16440;SDS011;8330;-33.858;151.184;2023-04-03T13:47:00;4.07;;;1.20;;
16440;SDS011;8330;-33.858;151.184;2023-04-03T13:49:46;6.35;;;1.17;;
16440;SDS011;8330;-33.858;151.184;2023-04-03T13:52:31;5.80;;;1.27;;
16440;SDS011;8330;-33.858;151.184;2023-04-03T13:55:11;4.05;;;1.17;;
16440;SDS011;8330;-33.858;151.184;2023-04-03T13:57:54;7.55;;;1.60;;
16440;SDS011;8330;-33.858;151.184;2023-04-03T14:00:32;5.78;;;1.23;;
16440;SDS011;8330;-33.858;151.184;2023-04-03T14:03:14;3.67;;;1.10;;
16440;SDS011;8330;-33.858;151.184;2023-04-03T14:05:49;4.95;;;1.13;;
16440;SDS011;8330;-33.858;151.184;2023-04-03T14:08:21;5.13;;;1.33;;
16440;SDS011;8330;-33.858;151.184;2023-04-03T14:10:53;6.43;;;1.30;;
16440;SDS011;8330;-33.858;151.184;2023-04-03T14:13:26;6.90;;;1.58;;
16440;SDS011;8330;-33.858;151.184;2023-04-03T14:16:00;7.88;;;1.50;;
16440;SDS011;8330;-33.858;151.184;2023-04-03T14:18:31;4.78;;;1.30;;
16440;SDS011;8330;-33.858;151.184;2023-04-03T14:21:03;4.78;;;1.42;;
16440;SDS011;8330;-33.858;151.184;2023-04-03T14:23:34;8.60;;;1.52;;
16440;SDS011;8330;-33.858;151.184;2023-04-03T14:26:05;5.57;;;1.50;;
16440;SDS011;8330;-33.858;151.184;2023-04-03T14:28:41;3.75;;;1.42;;
16440;SDS011;8330;-33.858;151.184;2023-04-03T14:31:13;4.78;;;1.50;;
16440;SDS011;8330;-33.858;151.184;2023-04-03T14:33:46;4.60;;;1.70;;
16440;SDS011;8330;-33.858;151.184;2023-04-03T14:36:18;7.03;;;1.85;;
16440;SDS011;8330;-33.858;151.184;2023-04-03T14:38:55;8.55;;;1.90;;
16440;SDS011;8330;-33.858;151.184;2023-04-03T14:41:27;6.53;;;1.90;;
16440;SDS011;8330;-33.858;151.184;2023-04-03T14:44:00;7.57;;;1.90;;
16440;SDS011;8330;-33.858;151.184;2023-04-03T14:46:32;5.40;;;1.60;;
16440;SDS011;8330;-33.858;151.184;2023-04-03T14:49:08;4.85;;;1.50;;
16440;SDS011;8330;-33.858;151.184;2023-04-03T14:51:43;4.70;;;1.48;;
16440;SDS011;8330;-33.858;151.184;2023-04-03T14:54:16;7.45;;;1.77;;
16440;SDS011;8330;-33.858;151.184;2023-04-03T14:56:51;5.05;;;1.50;;
16440;SDS011;8330;-33.858;151.184;2023-04-03T14:59:25;7.88;;;1.80;;
16440;SDS011;8330;-33.858;151.184;2023-04-03T15:01:58;4.50;;;1.70;;
16440;SDS011;8330;-33.858;151.184;2023-04-03T15:04:33;6.53;;;1.73;;
16440;SDS011;8330;-33.858;151.184;2023-04-03T15:07:04;6.97;;;1.80;;
16440;SDS011;8330;-33.858;151.184;2023-04-03T15:09:37;5.03;;;1.50;;
16440;SDS011;8330;-33.858;151.184;2023-04-03T15:12:08;4.00;;;1.60;;
16440;SDS011;8330;-33.858;151.184;2023-04-03T15:14:41;6.68;;;1.77;;
16440;SDS011;8330;-33.858;151.184;2023-04-03T15:17:13;4.95;;;1.35;;
16440;SDS011;8330;-33.858;151.184;2023-04-03T15:19:46;6.47;;;1.60;;
16440;SDS011;8330;-33.858;151.184;2023-04-03T15:22:18;5.90;;;1.60;;
16440;SDS011;8330;-33.858;151.184;2023-04-03T15:24:49;4.28;;;1.50;;